sensor_id;sensor_type;location;lat;lon;timestamp;P1;durP1;ratioP1;P2;durP2;ratioP2
14933;SDS011;7560;51.364;12.384;2022-11-20T00:02:32;26.38;;;12.75;;
14933;SDS011;7560;51.364;12.384;2022-11-20T00:07:34;23.73;;;12.57;;
14933;SDS011;7560;51.364;12.384;2022-11-20T00:12:36;25.37;;;12.83;;
14933;SDS011;7560;51.364;12.384;2022-11-20T00:17:38;22.70;;;12.35;;
14933;SDS011;7560;51.364;12.384;2022-11-20T00:22:40;26.63;;;12.85;;
14933;SDS011;7560;51.364;12.384;2022-11-20T00:27:41;25.98;;;12.18;;
14933;SDS011;7560;51.364;12.384;2022-11-20T00:32:43;22.33;;;12.17;;
14933;SDS011;7560;51.364;12.384;2022-11-20T00:37:45;26.98;;;12.65;;
14933;SDS011;7560;51.364;12.384;2022-11-20T00:42:47;26.13;;;11.93;;
14933;SDS011;7560;51.364;12.384;2022-11-20T00:47:48;26.30;;;12.27;;
14933;SDS011;7560;51.364;12.384;2022-11-20T00:52:50;25.67;;;11.60;;
14933;SDS011;7560;51.364;12.384;2022-11-20T00:57:52;25.97;;;12.83;;
14933;SDS011;7560;51.364;12.384;2022-11-20T01:02:55;27.50;;;13.13;;
14933;SDS011;7560;51.364;12.384;2022-11-20T01:07:57;27.20;;;13.03;;
14933;SDS011;7560;51.364;12.384;2022-11-20T01:12:59;26.43;;;12.63;;
14933;SDS011;7560;51.364;12.384;2022-11-20T01:18:25;23.67;;;11.53;;
14933;SDS011;7560;51.364;12.384;2022-11-20T01:23:29;26.03;;;12.37;;
14933;SDS011;7560;51.364;12.384;2022-11-20T01:28:32;28.97;;;13.23;;
14933;SDS011;7560;51.364;12.384;2022-11-20T01:33:34;25.17;;;12.97;;
14933;SDS011;7560;51.364;12.384;2022-11-20T01:38:36;26.23;;;12.67;;
14933;SDS011;7560;51.364;12.384;2022-11-20T01:43:38;26.13;;;12.73;;
14933;SDS011;7560;51.364;12.384;2022-11-20T01:53:57;28.43;;;12.80;;
14933;SDS011;7560;51.364;12.384;2022-11-20T01:59:03;28.10;;;13.33;;
14933;SDS011;7560;51.364;12.384;2022-11-20T02:04:07;28.87;;;13.70;;
14933;SDS011;7560;51.364;12.384;2022-11-20T02:09:11;29.03;;;13.83;;
14933;SDS011;7560;51.364;12.384;2022-11-20T02:14:13;27.20;;;13.00;;
14933;SDS011;7560;51.364;12.384;2022-11-20T02:19:22;25.83;;;12.13;;
14933;SDS011;7560;51.364;12.384;2022-11-20T02:24:27;27.33;;;13.40;;
14933;SDS011;7560;51.364;12.384;2022-11-20T02:29:33;26.97;;;12.03;;
14933;SDS011;7560;51.364;12.384;2022-11-20T02:34:37;27.13;;;11.93;;
14933;SDS011;7560;51.364;12.384;2022-11-20T02:39:39;28.00;;;12.63;;
14933;SDS011;7560;51.364;12.384;2022-11-20T02:44:41;27.33;;;12.90;;
14933;SDS011;7560;51.364;12.384;2022-11-20T02:49:43;28.10;;;13.90;;
14933;SDS011;7560;51.364;12.384;2022-11-20T02:54:44;26.27;;;12.83;;
14933;SDS011;7560;51.364;12.384;2022-11-20T02:59:46;31.13;;;13.20;;
14933;SDS011;7560;51.364;12.384;2022-11-20T03:04:48;25.03;;;12.90;;
14933;SDS011;7560;51.364;12.384;2022-11-20T03:09:49;29.63;;;13.20;;
14933;SDS011;7560;51.364;12.384;2022-11-20T03:14:51;28.47;;;14.23;;
14933;SDS011;7560;51.364;12.384;2022-11-20T03:19:53;31.67;;;14.37;;
14933;SDS011;7560;51.364;12.384;2022-11-20T03:24:55;31.33;;;14.33;;
14933;SDS011;7560;51.364;12.384;2022-11-20T03:29:57;36.10;;;15.67;;
14933;SDS011;7560;51.364;12.384;2022-11-20T03:34:58;32.43;;;14.67;;
14933;SDS011;7560;51.364;12.384;2022-11-20T03:40:00;31.43;;;14.70;;
14933;SDS011;7560;51.364;12.384;2022-11-20T03:45:02;34.60;;;15.60;;
14933;SDS011;7560;51.364;12.384;2022-11-20T03:50:04;37.27;;;14.43;;
14933;SDS011;7560;51.364;12.384;2022-11-20T03:55:06;32.70;;;14.13;;
14933;SDS011;7560;51.364;12.384;2022-11-20T04:00:09;35.53;;;16.53;;
14933;SDS011;7560;51.364;12.384;2022-11-20T04:05:11;32.47;;;14.40;;
14933;SDS011;7560;51.364;12.384;2022-11-20T04:10:13;38.10;;;16.60;;
14933;SDS011;7560;51.364;12.384;2022-11-20T04:15:14;35.57;;;16.17;;
14933;SDS011;7560;51.364;12.384;2022-11-20T04:20:16;35.27;;;15.50;;
14933;SDS011;7560;51.364;12.384;2022-11-20T04:25:18;39.40;;;16.63;;
14933;SDS011;7560;51.364;12.384;2022-11-20T04:30:19;38.63;;;16.57;;
14933;SDS011;7560;51.364;12.384;2022-11-20T04:35:21;38.80;;;15.87;;
14933;SDS011;7560;51.364;12.384;2022-11-20T04:40:23;37.70;;;16.33;;
14933;SDS011;7560;51.364;12.384;2022-11-20T04:45:24;36.37;;;17.00;;
14933;SDS011;7560;51.364;12.384;2022-11-20T04:50:26;37.47;;;16.73;;
14933;SDS011;7560;51.364;12.384;2022-11-20T04:55:28;35.53;;;14.80;;
14933;SDS011;7560;51.364;12.384;2022-11-20T05:00:29;36.17;;;15.70;;
14933;SDS011;7560;51.364;12.384;2022-11-20T05:05:33;35.03;;;15.07;;
14933;SDS011;7560;51.364;12.384;2022-11-20T05:10:35;35.87;;;16.07;;
14933;SDS011;7560;51.364;12.384;2022-11-20T05:15:37;36.03;;;15.47;;
14933;SDS011;7560;51.364;12.384;2022-11-20T05:20:39;38.23;;;15.90;;
14933;SDS011;7560;51.364;12.384;2022-11-20T05:25:40;38.33;;;15.07;;
14933;SDS011;7560;51.364;12.384;2022-11-20T05:30:42;36.70;;;16.13;;
14933;SDS011;7560;51.364;12.384;2022-11-20T05:35:44;32.37;;;14.87;;
14933;SDS011;7560;51.364;12.384;2022-11-20T05:40:46;36.80;;;15.80;;
14933;SDS011;7560;51.364;12.384;2022-11-20T05:45:53;41.17;;;15.57;;
14933;SDS011;7560;51.364;12.384;2022-11-20T05:50:59;37.77;;;16.00;;
14933;SDS011;7560;51.364;12.384;2022-11-20T06:01:17;39.80;;;16.43;;
14933;SDS011;7560;51.364;12.384;2022-11-20T06:06:21;38.00;;;16.50;;
14933;SDS011;7560;51.364;12.384;2022-11-20T06:11:23;37.33;;;15.77;;
14933;SDS011;7560;51.364;12.384;2022-11-20T06:16:25;42.23;;;16.43;;
14933;SDS011;7560;51.364;12.384;2022-11-20T06:21:27;44.80;;;17.13;;
14933;SDS011;7560;51.364;12.384;2022-11-20T06:26:29;37.43;;;16.57;;
14933;SDS011;7560;51.364;12.384;2022-11-20T06:31:31;37.60;;;15.70;;
14933;SDS011;7560;51.364;12.384;2022-11-20T06:36:38;42.10;;;17.00;;
14933;SDS011;7560;51.364;12.384;2022-11-20T06:41:40;36.60;;;15.17;;
14933;SDS011;7560;51.364;12.384;2022-11-20T06:46:42;34.97;;;15.03;;
14933;SDS011;7560;51.364;12.384;2022-11-20T06:51:43;37.57;;;16.33;;
14933;SDS011;7560;51.364;12.384;2022-11-20T06:56:48;36.60;;;15.60;;
14933;SDS011;7560;51.364;12.384;2022-11-20T07:01:50;35.73;;;15.20;;
14933;SDS011;7560;51.364;12.384;2022-11-20T07:06:52;37.47;;;14.17;;
14933;SDS011;7560;51.364;12.384;2022-11-20T07:11:53;43.17;;;15.90;;
14933;SDS011;7560;51.364;12.384;2022-11-20T07:16:55;33.87;;;15.23;;
14933;SDS011;7560;51.364;12.384;2022-11-20T07:21:57;39.67;;;15.43;;
14933;SDS011;7560;51.364;12.384;2022-11-20T07:26:58;37.57;;;15.93;;
14933;SDS011;7560;51.364;12.384;2022-11-20T07:32:00;40.50;;;17.77;;
14933;SDS011;7560;51.364;12.384;2022-11-20T07:37:02;37.03;;;16.63;;
14933;SDS011;7560;51.364;12.384;2022-11-20T07:42:10;42.47;;;16.07;;
14933;SDS011;7560;51.364;12.384;2022-11-20T07:47:13;38.83;;;16.03;;
14933;SDS011;7560;51.364;12.384;2022-11-20T07:52:14;31.20;;;15.03;;
14933;SDS011;7560;51.364;12.384;2022-11-20T07:57:16;38.50;;;15.73;;
14933;SDS011;7560;51.364;12.384;2022-11-20T08:02:18;37.20;;;15.00;;
14933;SDS011;7560;51.364;12.384;2022-11-20T08:07:20;37.17;;;16.33;;
14933;SDS011;7560;51.364;12.384;2022-11-20T08:12:21;35.47;;;14.53;;
14933;SDS011;7560;51.364;12.384;2022-11-20T08:17:42;40.77;;;15.60;;
14933;SDS011;7560;51.364;12.384;2022-11-20T08:23:03;33.00;;;15.00;;
14933;SDS011;7560;51.364;12.384;2022-11-20T08:28:09;33.83;;;14.43;;
14933;SDS011;7560;51.364;12.384;2022-11-20T08:33:21;36.13;;;15.80;;
14933;SDS011;7560;51.364;12.384;2022-11-20T08:38:22;34.27;;;15.47;;
14933;SDS011;7560;51.364;12.384;2022-11-20T08:43:24;33.23;;;14.27;;
14933;SDS011;7560;51.364;12.384;2022-11-20T08:48:26;35.60;;;15.40;;
14933;SDS011;7560;51.364;12.384;2022-11-20T08:53:27;38.37;;;15.77;;
14933;SDS011;7560;51.364;12.384;2022-11-20T08:58:30;33.13;;;14.80;;
14933;SDS011;7560;51.364;12.384;2022-11-20T09:03:52;32.25;;;14.75;;
14933;SDS011;7560;51.364;12.384;2022-11-20T09:08:57;33.23;;;14.23;;
14933;SDS011;7560;51.364;12.384;2022-11-20T09:14:06;25.77;;;12.73;;
14933;SDS011;7560;51.364;12.384;2022-11-20T09:19:08;29.02;;;13.02;;
14933;SDS011;7560;51.364;12.384;2022-11-20T09:24:29;28.65;;;12.70;;
14933;SDS011;7560;51.364;12.384;2022-11-20T09:29:31;29.83;;;14.57;;
14933;SDS011;7560;51.364;12.384;2022-11-20T09:34:33;28.20;;;13.32;;
14933;SDS011;7560;51.364;12.384;2022-11-20T09:39:34;35.05;;;13.65;;
14933;SDS011;7560;51.364;12.384;2022-11-20T09:55:29;29.20;;;13.63;;
14933;SDS011;7560;51.364;12.384;2022-11-20T10:00:31;29.50;;;12.68;;
14933;SDS011;7560;51.364;12.384;2022-11-20T10:05:51;30.77;;;14.27;;
14933;SDS011;7560;51.364;12.384;2022-11-20T10:11:12;30.75;;;13.93;;
14933;SDS011;7560;51.364;12.384;2022-11-20T10:16:41;35.55;;;14.35;;
14933;SDS011;7560;51.364;12.384;2022-11-20T10:22:06;31.80;;;14.00;;
14933;SDS011;7560;51.364;12.384;2022-11-20T10:32:52;26.90;;;12.88;;
14933;SDS011;7560;51.364;12.384;2022-11-20T10:38:00;31.55;;;14.68;;
14933;SDS011;7560;51.364;12.384;2022-11-20T10:43:08;29.40;;;14.45;;
14933;SDS011;7560;51.364;12.384;2022-11-20T10:48:23;31.05;;;14.32;;
14933;SDS011;7560;51.364;12.384;2022-11-20T10:59:00;29.80;;;13.27;;
14933;SDS011;7560;51.364;12.384;2022-11-20T11:04:23;29.73;;;13.20;;
14933;SDS011;7560;51.364;12.384;2022-11-20T11:09:42;24.58;;;12.30;;
14933;SDS011;7560;51.364;12.384;2022-11-20T11:14:46;22.67;;;11.68;;
14933;SDS011;7560;51.364;12.384;2022-11-20T11:19:59;20.92;;;10.57;;
14933;SDS011;7560;51.364;12.384;2022-11-20T11:25:04;18.60;;;9.95;;
14933;SDS011;7560;51.364;12.384;2022-11-20T11:30:15;20.67;;;10.07;;
14933;SDS011;7560;51.364;12.384;2022-11-20T11:35:25;18.73;;;9.52;;
14933;SDS011;7560;51.364;12.384;2022-11-20T11:40:29;21.23;;;9.80;;
14933;SDS011;7560;51.364;12.384;2022-11-20T11:45:33;18.73;;;9.18;;
14933;SDS011;7560;51.364;12.384;2022-11-20T11:50:35;17.75;;;8.77;;
14933;SDS011;7560;51.364;12.384;2022-11-20T11:55:42;17.27;;;8.32;;
14933;SDS011;7560;51.364;12.384;2022-11-20T12:06:43;16.52;;;8.77;;
14933;SDS011;7560;51.364;12.384;2022-11-20T12:11:53;17.70;;;8.18;;
14933;SDS011;7560;51.364;12.384;2022-11-20T12:17:18;19.45;;;9.05;;
14933;SDS011;7560;51.364;12.384;2022-11-20T12:22:27;18.15;;;9.00;;
14933;SDS011;7560;51.364;12.384;2022-11-20T12:32:58;17.90;;;9.32;;
14933;SDS011;7560;51.364;12.384;2022-11-20T12:38:29;16.77;;;8.45;;
14933;SDS011;7560;51.364;12.384;2022-11-20T12:43:44;16.23;;;8.50;;
14933;SDS011;7560;51.364;12.384;2022-11-20T12:55:33;15.35;;;8.38;;
14933;SDS011;7560;51.364;12.384;2022-11-20T13:00:38;18.27;;;8.52;;
14933;SDS011;7560;51.364;12.384;2022-11-20T13:16:21;14.90;;;8.05;;
14933;SDS011;7560;51.364;12.384;2022-11-20T13:21:35;19.65;;;9.40;;
14933;SDS011;7560;51.364;12.384;2022-11-20T13:26:39;15.23;;;7.85;;
14933;SDS011;7560;51.364;12.384;2022-11-20T13:31:46;15.38;;;7.90;;
14933;SDS011;7560;51.364;12.384;2022-11-20T13:36:50;18.23;;;9.25;;
14933;SDS011;7560;51.364;12.384;2022-11-20T13:41:57;17.15;;;8.68;;
14933;SDS011;7560;51.364;12.384;2022-11-20T13:47:01;18.15;;;9.20;;
14933;SDS011;7560;51.364;12.384;2022-11-20T13:52:22;13.75;;;7.80;;
14933;SDS011;7560;51.364;12.384;2022-11-20T14:03:42;17.23;;;8.05;;
14933;SDS011;7560;51.364;12.384;2022-11-20T14:09:04;13.52;;;7.10;;
14933;SDS011;7560;51.364;12.384;2022-11-20T14:14:16;15.27;;;7.22;;
14933;SDS011;7560;51.364;12.384;2022-11-20T14:19:26;12.30;;;6.88;;
14933;SDS011;7560;51.364;12.384;2022-11-20T14:24:29;13.38;;;6.80;;
14933;SDS011;7560;51.364;12.384;2022-11-20T14:29:35;13.13;;;6.85;;
14933;SDS011;7560;51.364;12.384;2022-11-20T14:34:39;12.27;;;6.65;;
14933;SDS011;7560;51.364;12.384;2022-11-20T14:39:51;15.30;;;7.55;;
14933;SDS011;7560;51.364;12.384;2022-11-20T14:44:57;16.10;;;8.18;;
14933;SDS011;7560;51.364;12.384;2022-11-20T14:50:00;14.25;;;7.40;;
14933;SDS011;7560;51.364;12.384;2022-11-20T14:55:13;14.15;;;7.72;;
14933;SDS011;7560;51.364;12.384;2022-11-20T15:00:26;17.05;;;8.07;;
14933;SDS011;7560;51.364;12.384;2022-11-20T15:05:44;16.70;;;8.07;;
14933;SDS011;7560;51.364;12.384;2022-11-20T15:10:48;15.07;;;8.32;;
14933;SDS011;7560;51.364;12.384;2022-11-20T15:15:55;20.17;;;9.57;;
14933;SDS011;7560;51.364;12.384;2022-11-20T15:21:00;18.02;;;9.40;;
14933;SDS011;7560;51.364;12.384;2022-11-20T15:26:04;19.85;;;10.10;;
14933;SDS011;7560;51.364;12.384;2022-11-20T15:31:08;18.23;;;9.07;;
14933;SDS011;7560;51.364;12.384;2022-11-20T15:36:14;20.48;;;9.07;;
14933;SDS011;7560;51.364;12.384;2022-11-20T15:41:16;21.00;;;10.05;;
14933;SDS011;7560;51.364;12.384;2022-11-20T15:46:19;19.85;;;9.95;;
14933;SDS011;7560;51.364;12.384;2022-11-20T15:56:35;21.45;;;10.55;;
14933;SDS011;7560;51.364;12.384;2022-11-20T16:01:36;25.38;;;12.00;;
14933;SDS011;7560;51.364;12.384;2022-11-20T16:06:38;25.40;;;11.95;;
14933;SDS011;7560;51.364;12.384;2022-11-20T16:11:40;21.95;;;10.70;;
14933;SDS011;7560;51.364;12.384;2022-11-20T16:16:42;21.40;;;11.43;;
14933;SDS011;7560;51.364;12.384;2022-11-20T16:21:44;22.40;;;10.80;;
14933;SDS011;7560;51.364;12.384;2022-11-20T16:26:46;24.23;;;10.77;;
14933;SDS011;7560;51.364;12.384;2022-11-20T16:31:48;24.75;;;11.48;;
14933;SDS011;7560;51.364;12.384;2022-11-20T16:36:49;26.00;;;11.43;;
14933;SDS011;7560;51.364;12.384;2022-11-20T16:41:51;21.85;;;11.13;;
14933;SDS011;7560;51.364;12.384;2022-11-20T16:46:53;23.00;;;10.77;;
14933;SDS011;7560;51.364;12.384;2022-11-20T16:51:55;22.45;;;11.05;;
14933;SDS011;7560;51.364;12.384;2022-11-20T16:56:57;22.08;;;11.57;;
14933;SDS011;7560;51.364;12.384;2022-11-20T17:01:59;24.95;;;11.20;;
14933;SDS011;7560;51.364;12.384;2022-11-20T17:07:01;30.17;;;13.20;;
14933;SDS011;7560;51.364;12.384;2022-11-20T17:12:08;27.40;;;12.57;;
14933;SDS011;7560;51.364;12.384;2022-11-20T17:17:10;27.15;;;12.73;;
14933;SDS011;7560;51.364;12.384;2022-11-20T17:22:12;31.02;;;14.18;;
14933;SDS011;7560;51.364;12.384;2022-11-20T17:27:13;29.75;;;13.65;;
14933;SDS011;7560;51.364;12.384;2022-11-20T17:32:15;32.00;;;15.02;;
14933;SDS011;7560;51.364;12.384;2022-11-20T17:37:17;31.52;;;13.65;;
14933;SDS011;7560;51.364;12.384;2022-11-20T17:42:18;35.25;;;14.55;;
14933;SDS011;7560;51.364;12.384;2022-11-20T17:47:36;30.25;;;14.27;;
14933;SDS011;7560;51.364;12.384;2022-11-20T17:52:38;37.08;;;14.40;;
14933;SDS011;7560;51.364;12.384;2022-11-20T17:57:40;31.85;;;13.52;;
14933;SDS011;7560;51.364;12.384;2022-11-20T18:02:54;30.15;;;13.45;;
14933;SDS011;7560;51.364;12.384;2022-11-20T18:07:55;30.52;;;12.65;;
14933;SDS011;7560;51.364;12.384;2022-11-20T18:12:57;31.02;;;12.57;;
14933;SDS011;7560;51.364;12.384;2022-11-20T18:17:59;28.25;;;13.00;;
14933;SDS011;7560;51.364;12.384;2022-11-20T18:23:01;30.92;;;12.65;;
14933;SDS011;7560;51.364;12.384;2022-11-20T18:28:02;29.02;;;12.60;;
14933;SDS011;7560;51.364;12.384;2022-11-20T18:33:04;30.17;;;14.02;;
14933;SDS011;7560;51.364;12.384;2022-11-20T18:38:06;28.80;;;13.48;;
14933;SDS011;7560;51.364;12.384;2022-11-20T18:43:09;33.70;;;14.25;;
14933;SDS011;7560;51.364;12.384;2022-11-20T18:48:30;28.38;;;12.57;;
14933;SDS011;7560;51.364;12.384;2022-11-20T18:53:35;36.42;;;15.02;;
14933;SDS011;7560;51.364;12.384;2022-11-20T18:58:36;34.20;;;14.88;;
14933;SDS011;7560;51.364;12.384;2022-11-20T19:03:40;33.05;;;14.77;;
14933;SDS011;7560;51.364;12.384;2022-11-20T19:08:43;26.45;;;12.20;;
14933;SDS011;7560;51.364;12.384;2022-11-20T19:13:45;32.17;;;13.90;;
14933;SDS011;7560;51.364;12.384;2022-11-20T19:18:47;30.63;;;14.32;;
14933;SDS011;7560;51.364;12.384;2022-11-20T19:23:50;36.08;;;15.07;;
14933;SDS011;7560;51.364;12.384;2022-11-20T19:28:53;30.88;;;14.80;;
14933;SDS011;7560;51.364;12.384;2022-11-20T19:33:56;32.20;;;13.95;;
14933;SDS011;7560;51.364;12.384;2022-11-20T19:38:59;35.80;;;15.23;;
14933;SDS011;7560;51.364;12.384;2022-11-20T19:44:19;29.98;;;14.25;;
14933;SDS011;7560;51.364;12.384;2022-11-20T19:49:21;32.17;;;14.35;;
14933;SDS011;7560;51.364;12.384;2022-11-20T19:54:23;32.85;;;15.30;;
14933;SDS011;7560;51.364;12.384;2022-11-20T19:59:25;35.45;;;14.70;;
14933;SDS011;7560;51.364;12.384;2022-11-20T20:04:27;33.10;;;14.38;;
14933;SDS011;7560;51.364;12.384;2022-11-20T20:09:29;33.15;;;15.23;;
14933;SDS011;7560;51.364;12.384;2022-11-20T20:14:31;28.83;;;14.43;;
14933;SDS011;7560;51.364;12.384;2022-11-20T20:19:32;30.90;;;14.48;;
14933;SDS011;7560;51.364;12.384;2022-11-20T20:24:34;32.45;;;14.32;;
14933;SDS011;7560;51.364;12.384;2022-11-20T20:29:36;31.30;;;15.20;;
14933;SDS011;7560;51.364;12.384;2022-11-20T20:34:37;32.33;;;15.82;;
14933;SDS011;7560;51.364;12.384;2022-11-20T20:39:39;30.65;;;15.23;;
14933;SDS011;7560;51.364;12.384;2022-11-20T20:44:41;33.53;;;14.70;;
14933;SDS011;7560;51.364;12.384;2022-11-20T20:50:05;33.50;;;16.48;;
14933;SDS011;7560;51.364;12.384;2022-11-20T20:55:09;32.35;;;15.23;;
14933;SDS011;7560;51.364;12.384;2022-11-20T21:00:11;32.88;;;15.82;;
14933;SDS011;7560;51.364;12.384;2022-11-20T21:05:13;32.28;;;15.68;;
14933;SDS011;7560;51.364;12.384;2022-11-20T21:10:15;32.35;;;15.88;;
14933;SDS011;7560;51.364;12.384;2022-11-20T21:15:23;33.33;;;15.77;;
14933;SDS011;7560;51.364;12.384;2022-11-20T21:20:25;32.17;;;15.85;;
14933;SDS011;7560;51.364;12.384;2022-11-20T21:25:45;32.47;;;15.40;;
14933;SDS011;7560;51.364;12.384;2022-11-20T21:30:47;28.83;;;14.15;;
14933;SDS011;7560;51.364;12.384;2022-11-20T21:35:49;30.55;;;14.48;;
14933;SDS011;7560;51.364;12.384;2022-11-20T21:40:51;32.25;;;15.43;;
14933;SDS011;7560;51.364;12.384;2022-11-20T21:45:52;30.88;;;15.70;;
14933;SDS011;7560;51.364;12.384;2022-11-20T21:51:00;35.30;;;17.02;;
14933;SDS011;7560;51.364;12.384;2022-11-20T21:56:07;29.20;;;14.82;;
14933;SDS011;7560;51.364;12.384;2022-11-20T22:01:12;30.65;;;15.02;;
14933;SDS011;7560;51.364;12.384;2022-11-20T22:06:19;27.83;;;14.23;;
14933;SDS011;7560;51.364;12.384;2022-11-20T22:11:21;30.08;;;14.60;;
14933;SDS011;7560;51.364;12.384;2022-11-20T22:16:23;32.70;;;14.45;;
14933;SDS011;7560;51.364;12.384;2022-11-20T22:21:26;30.63;;;14.90;;
14933;SDS011;7560;51.364;12.384;2022-11-20T22:26:29;28.08;;;14.27;;
14933;SDS011;7560;51.364;12.384;2022-11-20T22:31:40;27.42;;;13.88;;
14933;SDS011;7560;51.364;12.384;2022-11-20T22:36:43;25.92;;;13.57;;
14933;SDS011;7560;51.364;12.384;2022-11-20T22:41:45;27.80;;;13.98;;
14933;SDS011;7560;51.364;12.384;2022-11-20T22:46:47;28.35;;;13.63;;
14933;SDS011;7560;51.364;12.384;2022-11-20T22:51:49;29.25;;;14.43;;
14933;SDS011;7560;51.364;12.384;2022-11-20T22:56:51;28.67;;;13.85;;
14933;SDS011;7560;51.364;12.384;2022-11-20T23:01:52;26.70;;;13.30;;
14933;SDS011;7560;51.364;12.384;2022-11-20T23:06:54;27.40;;;13.93;;
14933;SDS011;7560;51.364;12.384;2022-11-20T23:11:56;32.03;;;14.52;;
14933;SDS011;7560;51.364;12.384;2022-11-20T23:16:58;29.85;;;15.25;;
14933;SDS011;7560;51.364;12.384;2022-11-20T23:21:59;30.40;;;14.50;;
14933;SDS011;7560;51.364;12.384;2022-11-20T23:27:01;29.63;;;14.65;;
14933;SDS011;7560;51.364;12.384;2022-11-20T23:32:03;28.75;;;14.40;;
14933;SDS011;7560;51.364;12.384;2022-11-20T23:37:04;34.97;;;15.63;;
14933;SDS011;7560;51.364;12.384;2022-11-20T23:42:06;30.45;;;15.13;;
14933;SDS011;7560;51.364;12.384;2022-11-20T23:47:08;32.88;;;16.38;;
14933;SDS011;7560;51.364;12.384;2022-11-20T23:52:09;31.63;;;15.73;;
14933;SDS011;7560;51.364;12.384;2022-11-20T23:57:11;33.10;;;16.15;;
